Time;durP1;ratioP1;P1;durP2;ratioP2;P2;SDS_P1;SDS_P2;PMS_P1;PMS_P2;Temp;Humidity;BMP_temperature;BMP_pressure;BME280_temperature;BME280_humidity;BME280_pressure;Samples;Min_cycle;Max_cycle;Signal;HPM_P1;HPM_P2
2023/12/24 00:01:30;;;;;;;;;;;;;;;;;;5052442;28;20046;-83
2023/12/24 00:03:56;;;;;;;;;;;;;;;;;;5054300;28;19924;-84
2023/12/24 00:06:22;;;;;;;;;;;;;;;;;;5037036;28;19921;-83
2023/12/24 00:08:48;;;;;;;;;;;;;;;;;;5054697;28;20317;-83
2023/12/24 00:11:14;;;;;;;;;;;;;;;;;;5034703;28;19921;-84
2023/12/24 00:13:40;;;;;;;;;;;;;;;;;;5047447;28;19921;-83
2023/12/24 00:16:06;;;;;;;;;;;;;;;;;;5030530;28;19921;-86
2023/12/24 00:18:32;;;;;;;;;;;;;;;;;;5047309;28;19921;-84
2023/12/24 00:20:58;;;;;;;;;;;;;;;;;;5053881;28;19921;-84
2023/12/24 00:23:24;;;;;;;;;;;;;;;;;;5053590;28;20389;-85
2023/12/24 00:25:50;;;;;;;;;;;;;;;;;;5053797;28;20492;-83
2023/12/24 00:28:16;;;;;;;;;;;;;;;;;;5035294;28;19935;-83
2023/12/24 00:30:42;;;;;;;;;;;;;;;;;;5043002;28;19964;-82
2023/12/24 00:33:08;;;;;;;;;;;;;;;;;;5053398;28;19928;-86
2023/12/24 00:35:35;;;;;;;;;;;;;;;;;;5041157;28;19999;-83
2023/12/24 00:38:01;;;;;;;;;;;;;;;;;;5031812;28;19971;-83
2023/12/24 00:40:27;;;;;;;;;;;;;;;;;;5052456;28;20357;-84
2023/12/24 00:42:53;;;;;;;;;;;;;;;;;;5054631;28;19936;-83
2023/12/24 00:45:19;;;;;;;;;;;;;;;;;;5033513;28;20036;-84
2023/12/24 00:47:45;;;;;;;;;;;;;;;;;;5044025;28;19925;-83
2023/12/24 00:50:11;;;;;;;;;;;;;;;;;;5042489;28;20062;-88
2023/12/24 00:52:37;;;;;;;;;;;;;;;;;;5036624;28;20392;-83
2023/12/24 00:55:03;;;;;;;;;;;;;;;;;;5036975;28;19979;-84
2023/12/24 00:57:29;;;;;;;;;;;;;;;;;;5063068;28;19928;-84
2023/12/24 00:59:55;;;;;;;;;;;;;;;;;;5030159;28;19924;-83
2023/12/24 01:02:24;;;;;;;;;;;;;;;;;;5064960;28;19920;-85
2023/12/24 01:04:50;;;;;;;;;;;;;;;;;;5049118;28;20251;-85
2023/12/24 01:07:16;;;;;;;;;;;;;;;;;;5043356;28;20361;-85
2023/12/24 01:09:42;;;;;;;;;;;;;;;;;;5043195;28;19943;-84
2023/12/24 01:12:08;;;;;;;;;;;;;;;;;;5048206;28;19920;-84
2023/12/24 01:14:34;;;;;;;;;;;;;;;;;;5060513;28;20421;-83
2023/12/24 01:17:00;;;;;;;;;;;;;;;;;;5043491;28;19920;-85
2023/12/24 01:19:27;;;;;;;;;;;;;;;;;;5048604;28;19921;-84
2023/12/24 01:21:54;;;;;;;;;;;;;;;;;;5037773;28;20278;-84
2023/12/24 01:24:20;;;;;;;;;;;;;;;;;;5055772;28;19920;-83
2023/12/24 01:26:46;;;;;;;;;;;;;;;;;;5040782;28;19943;-83
2023/12/24 01:29:12;;;;;;;;;;;;;;;;;;5020907;28;20043;-84
2023/12/24 01:31:38;;;;;;;;;;;;;;;;;;5048406;28;19931;-84
2023/12/24 01:34:04;;;;;;;;;;;;;;;;;;5065072;28;19921;-84
2023/12/24 01:36:30;;;;;;;;;;;;;;;;;;5036918;28;19920;-84
2023/12/24 01:38:56;;;;;;;;;;;;;;;;;;5073194;28;19924;-85
2023/12/24 01:41:22;;;;;;;;;;;;;;;;;;5056082;28;19920;-84
2023/12/24 01:43:48;;;;;;;;;;;;;;;;;;5056094;28;20383;-84
2023/12/24 01:46:14;;;;;;;;;;;;;;;;;;5046754;28;19944;-84
2023/12/24 01:48:40;;;;;;;;;;;;;;;;;;5052322;28;19924;-81
2023/12/24 01:51:07;;;;;;;;;;;;;;;;;;5036053;28;19967;-84
2023/12/24 01:53:32;;;;;;;;;;;;;;;;;;5035671;28;19921;-81
2023/12/24 01:56:04;;;;;;;;;;;;;;;;;;5037311;28;19975;-81
2023/12/24 01:58:30;;;;;;;;;;;;;;;;;;5051556;28;19921;-81
2023/12/24 02:00:56;;;;;;;;;;;;;;;;;;5036279;28;19943;-82
2023/12/24 02:03:22;;;;;;;;;;;;;;;;;;5035574;28;19929;-82
2023/12/24 02:05:48;;;;;;;;;;;;;;;;;;5035966;28;19974;-81
2023/12/24 02:08:14;;;;;;;;;;;;;;;;;;5035454;28;19920;-82
2023/12/24 02:10:40;;;;;;;;;;;;;;;;;;5035758;28;19927;-81
2023/12/24 02:13:06;;;;;;;;;;;;;;;;;;5034474;28;19920;-81
2023/12/24 02:15:32;;;;;;;;;;;;;;;;;;5035534;28;19921;-82
2023/12/24 02:17:59;;;;;;;;;;;;;;;;;;5035688;28;19920;-81
2023/12/24 02:20:25;;;;;;;;;;;;;;;;;;5051932;28;20016;-81
2023/12/24 02:22:51;;;;;;;;;;;;;;;;;;5035844;28;20281;-81
2023/12/24 02:25:17;;;;;;;;;;;;;;;;;;5052251;28;19921;-81
2023/12/24 02:27:43;;;;;;;;;;;;;;;;;;5051282;28;20376;-81
2023/12/24 02:30:09;;;;;;;;;;;;;;;;;;5035603;28;19994;-81
2023/12/24 02:32:35;;;;;;;;;;;;;;;;;;5034933;28;19924;-81
2023/12/24 02:35:01;;;;;;;;;;;;;;;;;;5034887;28;19927;-81
2023/12/24 02:37:27;;;;;;;;;;;;;;;;;;5034697;28;19920;-83
2023/12/24 02:39:53;;;;;;;;;;;;;;;;;;5035669;28;19921;-82
2023/12/24 02:42:19;;;;;;;;;;;;;;;;;;5051711;28;20434;-81
2023/12/24 02:44:45;;;;;;;;;;;;;;;;;;5051835;28;19920;-82
2023/12/24 02:47:11;;;;;;;;;;;;;;;;;;5035209;28;19920;-82
2023/12/24 02:49:37;;;;;;;;;;;;;;;;;;5034799;28;19928;-82
2023/12/24 02:52:04;;;;;;;;;;;;;;;;;;5051088;28;19921;-84
2023/12/24 02:54:30;;;;;;;;;;;;;;;;;;5031248;28;19947;-82
2023/12/24 02:56:56;;;;;;;;;;;;;;;;;;5015363;28;20011;-84
2023/12/24 02:59:25;;;;;;;;;;;;;;;;;;5015638;28;19936;-82
2023/12/24 03:01:51;;;;;;;;;;;;;;;;;;5015690;28;19925;-82
2023/12/24 03:04:17;;;;;;;;;;;;;;;;;;5015299;28;19944;-82
2023/12/24 03:06:43;;;;;;;;;;;;;;;;;;5015263;28;19920;-81
2023/12/24 03:09:10;;;;;;;;;;;;;;;;;;5015405;28;19995;-83
2023/12/24 03:11:36;;;;;;;;;;;;;;;;;;5015450;28;19943;-82
2023/12/24 03:14:02;;;;;;;;;;;;;;;;;;5017397;28;20358;-83
2023/12/24 03:16:28;;;;;;;;;;;;;;;;;;5015659;28;19966;-86
2023/12/24 03:18:54;;;;;;;;;;;;;;;;;;5015218;28;19924;-83
2023/12/24 03:21:20;;;;;;;;;;;;;;;;;;5032091;28;19960;-84
2023/12/24 03:23:46;;;;;;;;;;;;;;;;;;5017073;28;19967;-84
2023/12/24 03:26:12;;;;;;;;;;;;;;;;;;5019420;28;19950;-83
2023/12/24 03:28:38;;;;;;;;;;;;;;;;;;5018652;28;19921;-83
2023/12/24 03:31:04;;;;;;;;;;;;;;;;;;5019201;28;19921;-83
2023/12/24 03:33:30;;;;;;;;;;;;;;;;;;5018767;28;19927;-86
2023/12/24 03:35:56;;;;;;;;;;;;;;;;;;5035217;28;19931;-83
2023/12/24 03:38:22;;;;;;;;;;;;;;;;;;5019232;28;20267;-83
2023/12/24 03:40:48;;;;;;;;;;;;;;;;;;5018481;28;20012;-83
2023/12/24 03:43:14;;;;;;;;;;;;;;;;;;5018676;28;19921;-83
2023/12/24 03:45:39;;;;;;;;;;;;;;;;;;5018404;28;19921;-84
2023/12/24 03:48:05;;;;;;;;;;;;;;;;;;5019065;28;19928;-83
2023/12/24 03:50:31;;;;;;;;;;;;;;;;;;5018777;28;20269;-87
2023/12/24 03:52:57;;;;;;;;;;;;;;;;;;5036855;28;19923;-84
2023/12/24 03:55:23;;;;;;;;;;;;;;;;;;5038479;28;19927;-84
2023/12/24 03:57:49;;;;;;;;;;;;;;;;;;5037966;28;19956;-83
2023/12/24 04:00:15;;;;;;;;;;;;;;;;;;5038754;28;19932;-85
2023/12/24 04:02:41;;;;;;;;;;;;;;;;;;5038342;28;20046;-84
2023/12/24 04:05:07;;;;;;;;;;;;;;;;;;5055079;28;19927;-84
2023/12/24 04:07:33;;;;;;;;;;;;;;;;;;5055231;28;20003;-85
2023/12/24 04:09:59;;;;;;;;;;;;;;;;;;5038307;28;19921;-84
2023/12/24 04:12:25;;;;;;;;;;;;;;;;;;5054717;28;19925;-85
2023/12/24 04:14:51;;;;;;;;;;;;;;;;;;5054739;28;20358;-85
2023/12/24 04:17:17;;;;;;;;;;;;;;;;;;5038268;28;19971;-85
2023/12/24 04:19:43;;;;;;;;;;;;;;;;;;5037877;28;20381;-85
2023/12/24 04:22:09;;;;;;;;;;;;;;;;;;5037945;28;19921;-85
2023/12/24 04:24:35;;;;;;;;;;;;;;;;;;5038317;28;19931;-85
2023/12/24 04:27:01;;;;;;;;;;;;;;;;;;5054088;28;19920;-85
2023/12/24 04:29:27;;;;;;;;;;;;;;;;;;5037862;28;19928;-85
2023/12/24 04:31:53;;;;;;;;;;;;;;;;;;5037574;28;19924;-85
2023/12/24 04:34:19;;;;;;;;;;;;;;;;;;5053035;28;20355;-86
2023/12/24 04:36:45;;;;;;;;;;;;;;;;;;5036324;28;19924;-84
2023/12/24 04:39:11;;;;;;;;;;;;;;;;;;5037091;28;19928;-86
2023/12/24 04:41:37;;;;;;;;;;;;;;;;;;5054594;28;20007;-85
2023/12/24 04:44:03;;;;;;;;;;;;;;;;;;5051202;28;19927;-85
2023/12/24 04:46:29;;;;;;;;;;;;;;;;;;5074676;28;19920;-86
2023/12/24 04:48:55;;;;;;;;;;;;;;;;;;5074029;28;19925;-87
2023/12/24 04:51:21;;;;;;;;;;;;;;;;;;5074722;28;20449;-87
2023/12/24 04:53:47;;;;;;;;;;;;;;;;;;5057363;28;20015;-86
2023/12/24 04:56:13;;;;;;;;;;;;;;;;;;5058472;28;20354;-86
2023/12/24 04:58:39;;;;;;;;;;;;;;;;;;5049360;28;20004;-86
2023/12/24 05:01:07;;;;;;;;;;;;;;;;;;5037591;28;19924;-86
2023/12/24 05:03:32;;;;;;;;;;;;;;;;;;5037463;28;19928;-86
2023/12/24 05:05:58;;;;;;;;;;;;;;;;;;5053916;28;19921;-87
2023/12/24 05:08:24;;;;;;;;;;;;;;;;;;5037492;28;19989;-87
2023/12/24 05:10:52;;;;;;;;;;;;;;;;;;5053958;28;19925;-85
2023/12/24 05:13:18;;;;;;;;;;;;;;;;;;5036887;28;19971;-85
2023/12/24 05:15:44;;;;;;;;;;;;;;;;;;5037032;28;19982;-88
2023/12/24 05:18:10;;;;;;;;;;;;;;;;;;5037530;28;19925;-87
2023/12/24 05:20:36;;;;;;;;;;;;;;;;;;5054014;28;19920;-87
2023/12/24 05:23:02;;;;;;;;;;;;;;;;;;5037059;28;20031;-86
2023/12/24 05:25:28;;;;;;;;;;;;;;;;;;5053723;28;20039;-86
2023/12/24 05:27:54;;;;;;;;;;;;;;;;;;5036379;28;19924;-86
2023/12/24 05:30:20;;;;;;;;;;;;;;;;;;5037000;28;20009;-85
2023/12/24 05:32:46;;;;;;;;;;;;;;;;;;5036523;28;20009;-84
2023/12/24 05:35:12;;;;;;;;;;;;;;;;;;5053177;28;19921;-85
2023/12/24 05:37:39;;;;;;;;;;;;;;;;;;5052388;28;19920;-84
2023/12/24 05:40:05;;;;;;;;;;;;;;;;;;5036377;28;19975;-85
2023/12/24 05:42:31;;;;;;;;;;;;;;;;;;5053135;28;19932;-86
2023/12/24 05:44:57;;;;;;;;;;;;;;;;;;5052850;28;19920;-86
2023/12/24 05:47:26;;;;;;;;;;;;;;;;;;5036705;28;19974;-85
2023/12/24 05:49:52;;;;;;;;;;;;;;;;;;5036098;28;20309;-86
2023/12/24 05:52:18;;;;;;;;;;;;;;;;;;5052638;28;19920;-86
2023/12/24 05:54:44;;;;;;;;;;;;;;;;;;5036398;28;19920;-86
2023/12/24 05:57:10;;;;;;;;;;;;;;;;;;5052474;28;19932;-87
2023/12/24 05:59:36;;;;;;;;;;;;;;;;;;5052913;28;19920;-86
2023/12/24 06:02:02;;;;;;;;;;;;;;;;;;5035340;28;19928;-86
2023/12/24 06:04:28;;;;;;;;;;;;;;;;;;5036050;28;19920;-86
2023/12/24 06:06:54;;;;;;;;;;;;;;;;;;5035985;28;19983;-86
2023/12/24 06:09:20;;;;;;;;;;;;;;;;;;5052779;28;19921;-86
2023/12/24 06:11:46;;;;;;;;;;;;;;;;;;5036232;28;20361;-86
2023/12/24 06:14:12;;;;;;;;;;;;;;;;;;5052204;28;20048;-86
2023/12/24 06:16:38;;;;;;;;;;;;;;;;;;5052757;28;19967;-87
2023/12/24 06:19:05;;;;;;;;;;;;;;;;;;5035274;28;19920;-87
2023/12/24 06:21:31;;;;;;;;;;;;;;;;;;5051936;28;19974;-86
2023/12/24 06:23:57;;;;;;;;;;;;;;;;;;5034879;28;19924;-86
2023/12/24 06:26:23;;;;;;;;;;;;;;;;;;5052106;28;20350;-86
2023/12/24 06:28:49;;;;;;;;;;;;;;;;;;5035375;28;19986;-86
2023/12/24 06:31:15;;;;;;;;;;;;;;;;;;5035584;28;19925;-85
2023/12/24 06:33:41;;;;;;;;;;;;;;;;;;5034964;28;19925;-84
2023/12/24 06:36:07;;;;;;;;;;;;;;;;;;5034848;28;19935;-85
2023/12/24 06:38:33;;;;;;;;;;;;;;;;;;5051720;28;20425;-85
2023/12/24 06:40:59;;;;;;;;;;;;;;;;;;5035119;28;20011;-86
2023/12/24 06:43:25;;;;;;;;;;;;;;;;;;5051717;28;19924;-84
2023/12/24 06:45:51;;;;;;;;;;;;;;;;;;5035230;28;19922;-85
2023/12/24 06:48:17;;;;;;;;;;;;;;;;;;5035319;28;20011;-85
2023/12/24 06:50:43;;;;;;;;;;;;;;;;;;5035056;28;20251;-86
2023/12/24 06:53:09;;;;;;;;;;;;;;;;;;5051506;28;19920;-85
2023/12/24 06:55:35;;;;;;;;;;;;;;;;;;5051750;28;19925;-85
2023/12/24 06:58:03;;;;;;;;;;;;;;;;;;5033772;28;19921;-86
2023/12/24 07:00:29;;;;;;;;;;;;;;;;;;5035097;28;19920;-85
2023/12/24 07:02:55;;;;;;;;;;;;;;;;;;5052143;28;19925;-85
2023/12/24 07:05:21;;;;;;;;;;;;;;;;;;5034802;28;19968;-85
2023/12/24 07:07:47;;;;;;;;;;;;;;;;;;5035204;28;19956;-85
2023/12/24 07:10:14;;;;;;;;;;;;;;;;;;5051693;28;19925;-86
2023/12/24 07:12:41;;;;;;;;;;;;;;;;;;5034555;28;19955;-86
2023/12/24 07:15:13;;;;;;;;;;;;;;;;;;5035069;28;19944;-86
2023/12/24 07:17:39;;;;;;;;;;;;;;;;;;5034066;28;19920;-86
2023/12/24 07:20:08;;;;;;;;;;;;;;;;;;5051365;28;19994;-85
2023/12/24 07:22:58;;;;;;;;;;;;;;;;;;5050464;28;19928;-86
2023/12/24 07:25:24;;;;;;;;;;;;;;;;;;5051517;28;19921;-86
2023/12/24 07:27:50;;;;;;;;;;;;;;;;;;5034292;28;19921;-85
2023/12/24 07:30:18;;;;;;;;;;;;;;;;;;5051164;28;19920;-86
2023/12/24 07:32:50;;;;;;;;;;;;;;;;;;5035554;28;19921;-85
2023/12/24 07:35:18;;;;;;;;;;;;;;;;;;5034145;28;19928;-86
2023/12/24 07:37:53;;;;;;;;;;;;;;;;;;5050546;28;19921;-86
2023/12/24 07:40:20;;;;;;;;;;;;;;;;;;5051084;28;19921;-86
2023/12/24 07:42:51;;;;;;;;;;;;;;;;;;5019914;28;19928;-86
2023/12/24 07:45:19;;;;;;;;;;;;;;;;;;5050960;28;19920;-87
2023/12/24 07:47:51;;;;;;;;;;;;;;;;;;5052279;28;20034;-87
2023/12/24 07:50:17;;;;;;;;;;;;;;;;;;5034482;28;20312;-86
2023/12/24 07:52:52;;;;;;;;;;;;;;;;;;5051250;28;19928;-86
2023/12/24 07:55:18;;;;;;;;;;;;;;;;;;5034492;28;20003;-91
2023/12/24 07:57:44;;;;;;;;;;;;;;;;;;5034395;28;20031;-85
2023/12/24 08:00:11;;;;;;;;;;;;;;;;;;5050193;28;19920;-82
2023/12/24 08:02:37;;;;;;;;;;;;;;;;;;5051454;28;19927;-85
2023/12/24 08:05:03;;;;;;;;;;;;;;;;;;5050229;28;20541;-87
2023/12/24 08:07:29;;;;;;;;;;;;;;;;;;5033805;28;19964;-87
2023/12/24 08:09:56;;;;;;;;;;;;;;;;;;5045373;28;20370;-85
2023/12/24 08:12:24;;;;;;;;;;;;;;;;;;5034503;28;20590;-83
2023/12/24 08:15:06;;;;;;;;;;;;;;;;;;5052132;28;20297;-84
2023/12/24 08:17:33;;;;;;;;;;;;;;;;;;5036259;28;19920;-84
2023/12/24 08:20:03;;;;;;;;;;;;;;;;;;5055111;28;19943;-84
2023/12/24 08:22:30;;;;;;;;;;;;;;;;;;5053605;28;20435;-82
2023/12/24 08:25:02;;;;;;;;;;;;;;;;;;5048992;28;19995;-84
2023/12/24 08:27:39;;;;;;;;;;;;;;;;;;5053447;28;19924;-85
2023/12/24 08:43:01;;;;;;;;;;;;;;;;;;4954133;29;19917;-85
2023/12/24 08:45:48;;;;;;;;;;;;;;;;;;4852509;29;19930;-84
2023/12/24 09:03:51;;;;;;;;;;;;;;;;;;4878045;29;19919;-85
2023/12/24 09:09:39;;;;;;;;;;;;;;;;;;4878371;29;20433;-85
2023/12/24 09:15:17;;;;;;;;;;;;;;;;;;4909401;29;19946;-87
2023/12/24 09:21:04;;;;;;;;;;;;;;;;;;5011358;28;19921;-85
2023/12/24 09:33:07;;;;;;;;;;;;;;;;;;4973313;28;19953;-84
2023/12/24 09:36:32;;;;;;;;;;;;;;;;;;4935900;28;20409;-87
2023/12/24 09:39:35;;;;;;;;;;;;;;;;;;4952315;28;20320;-85
2023/12/24 09:45:44;;;;;;;;;;;;;;;;;;4934142;29;20427;-86
2023/12/24 09:48:59;;;;;;;;;;;;;;;;;;4946489;28;20368;-85
2023/12/24 09:52:03;;;;;;;;;;;;;;;;;;4899269;29;19923;-86
2023/12/24 09:54:36;;;;;;;;;;;;;;;;;;4914812;29;20045;-86
2023/12/24 09:57:39;;;;;;;;;;;;;;;;;;4913925;29;19950;-86
2023/12/24 10:00:41;;;;;;;;;;;;;;;;;;4900768;29;19958;-86
2023/12/24 10:03:17;;;;;;;;;;;;;;;;;;4853333;29;19927;-86
2023/12/24 10:06:10;;;;;;;;;;;;;;;;;;4888658;29;19927;-86
2023/12/24 10:08:52;;;;;;;;;;;;;;;;;;4914295;28;19927;-87
2023/12/24 10:11:25;;;;;;;;;;;;;;;;;;4960108;28;20521;-89
2023/12/24 10:17:20;;;;;;;;;;;;;;;;;;5032811;28;19973;-89
2023/12/24 10:19:47;;;;;;;;;;;;;;;;;;5020365;28;19924;-87
2023/12/24 10:22:33;;;;;;;;;;;;;;;;;;5050780;28;19978;-87
2023/12/24 10:24:59;;;;;;;;;;;;;;;;;;5035231;28;19935;-87
2023/12/24 10:27:25;;;;;;;;;;;;;;;;;;5035470;28;19920;-87
2023/12/24 10:29:53;;;;;;;;;;;;;;;;;;5035966;28;19928;-86
2023/12/24 10:32:20;;;;;;;;;;;;;;;;;;5035249;28;19920;-86
2023/12/24 10:34:54;;;;;;;;;;;;;;;;;;5036316;28;20335;-86
2023/12/24 10:37:29;;;;;;;;;;;;;;;;;;5035848;28;19924;-86
2023/12/24 10:40:19;;;;;;;;;;;;;;;;;;4981092;28;19929;-88
2023/12/24 10:43:05;;;;;;;;;;;;;;;;;;4982184;28;20363;-89
2023/12/24 10:46:01;;;;;;;;;;;;;;;;;;4973733;28;19921;-88
2023/12/24 10:48:34;;;;;;;;;;;;;;;;;;4959205;28;19922;-90
2023/12/24 10:57:06;;;;;;;;;;;;;;;;;;5033663;28;19921;-89
2023/12/24 11:00:03;;;;;;;;;;;;;;;;;;5033253;28;19929;-88
2023/12/24 11:02:53;;;;;;;;;;;;;;;;;;5040205;28;19915;-89
2023/12/24 11:05:46;;;;;;;;;;;;;;;;;;5048282;28;19935;-90
2023/12/24 11:08:28;;;;;;;;;;;;;;;;;;5051734;28;19927;-90
2023/12/24 11:11:04;;;;;;;;;;;;;;;;;;5036496;28;19966;-87
2023/12/24 11:13:42;;;;;;;;;;;;;;;;;;5049670;28;19988;-88
2023/12/24 11:16:10;;;;;;;;;;;;;;;;;;5049342;28;20007;-89
2023/12/24 11:18:46;;;;;;;;;;;;;;;;;;5052558;28;19928;-88
2023/12/24 11:21:12;;;;;;;;;;;;;;;;;;5052076;28;20281;-90
2023/12/24 11:23:39;;;;;;;;;;;;;;;;;;5051691;28;19920;-87
2023/12/24 11:26:14;;;;;;;;;;;;;;;;;;5051076;28;19920;-89
2023/12/24 11:28:42;;;;;;;;;;;;;;;;;;5034323;28;19921;-88
2023/12/24 11:31:34;;;;;;;;;;;;;;;;;;5042287;28;20309;-86
2023/12/24 11:34:12;;;;;;;;;;;;;;;;;;5050802;28;19925;-86
2023/12/24 11:36:57;;;;;;;;;;;;;;;;;;5006472;28;19933;-91
2023/12/24 11:39:25;;;;;;;;;;;;;;;;;;4977468;28;19929;-88
2023/12/24 11:42:03;;;;;;;;;;;;;;;;;;4984838;28;20351;-79
2023/12/24 11:44:29;;;;;;;;;;;;;;;;;;4991819;28;20008;-91
2023/12/24 11:46:55;;;;;;;;;;;;;;;;;;4983001;28;19944;-91
2023/12/24 11:49:21;;;;;;;;;;;;;;;;;;5015603;28;19928;-89
2023/12/24 11:51:47;;;;;;;;;;;;;;;;;;4996843;28;19925;-90
2023/12/24 11:54:13;;;;;;;;;;;;;;;;;;4996963;28;19929;-90
2023/12/24 11:56:42;;;;;;;;;;;;;;;;;;4995990;28;19922;-88
2023/12/24 11:59:08;;;;;;;;;;;;;;;;;;4984705;28;20423;-88
2023/12/24 12:01:36;;;;;;;;;;;;;;;;;;4992423;28;19921;-86
2023/12/24 12:04:11;;;;;;;;;;;;;;;;;;5000971;28;20363;-86
2023/12/24 12:06:37;;;;;;;;;;;;;;;;;;4992016;28;19928;-86
2023/12/24 12:09:09;;;;;;;;;;;;;;;;;;5053507;28;19921;-87
2023/12/24 12:11:35;;;;;;;;;;;;;;;;;;5038606;28;19954;-88
2023/12/24 12:14:01;;;;;;;;;;;;;;;;;;5037869;28;20477;-87
2023/12/24 12:16:28;;;;;;;;;;;;;;;;;;5038701;28;19927;-86
2023/12/24 12:18:54;;;;;;;;;;;;;;;;;;5038173;28;19925;-89
2023/12/24 12:21:20;;;;;;;;;;;;;;;;;;5038738;28;19927;-86
2023/12/24 12:23:46;;;;;;;;;;;;;;;;;;5038238;28;19978;-89
2023/12/24 12:26:12;;;;;;;;;;;;;;;;;;5038744;28;20384;-88
2023/12/24 12:28:38;;;;;;;;;;;;;;;;;;5037242;28;19927;-89
2023/12/24 12:31:04;;;;;;;;;;;;;;;;;;5038117;28;19927;-88
2023/12/24 12:33:30;;;;;;;;;;;;;;;;;;5037959;28;19927;-88
2023/12/24 12:35:56;;;;;;;;;;;;;;;;;;5054759;28;19929;-89
2023/12/24 12:38:22;;;;;;;;;;;;;;;;;;5055041;28;19978;-89
2023/12/24 12:40:49;;;;;;;;;;;;;;;;;;5029957;28;20222;-89
2023/12/24 12:43:15;;;;;;;;;;;;;;;;;;5037314;28;20007;-89
2023/12/24 12:45:41;;;;;;;;;;;;;;;;;;5054345;28;19920;-89
2023/12/24 12:48:08;;;;;;;;;;;;;;;;;;5054543;28;19928;-87
2023/12/24 12:50:34;;;;;;;;;;;;;;;;;;5037540;28;20019;-87
2023/12/24 12:53:01;;;;;;;;;;;;;;;;;;5036765;28;20023;-87
2023/12/24 12:55:26;;;;;;;;;;;;;;;;;;5036678;28;19920;-87
2023/12/24 12:57:53;;;;;;;;;;;;;;;;;;5036394;28;20016;-86
2023/12/24 13:00:18;;;;;;;;;;;;;;;;;;5037221;28;20376;-86
2023/12/24 13:02:44;;;;;;;;;;;;;;;;;;5036774;28;19921;-87
2023/12/24 13:05:10;;;;;;;;;;;;;;;;;;5034226;28;20337;-87
2023/12/24 13:07:36;;;;;;;;;;;;;;;;;;5037245;28;19924;-87
2023/12/24 13:10:02;;;;;;;;;;;;;;;;;;5053683;28;20357;-87
2023/12/24 13:12:31;;;;;;;;;;;;;;;;;;5034159;28;19944;-88
2023/12/24 13:14:57;;;;;;;;;;;;;;;;;;5051379;28;20270;-87
2023/12/24 13:17:23;;;;;;;;;;;;;;;;;;5054037;28;19921;-90
2023/12/24 13:19:49;;;;;;;;;;;;;;;;;;5036750;28;19920;-89
2023/12/24 13:22:15;;;;;;;;;;;;;;;;;;5037300;28;19947;-85
2023/12/24 13:24:41;;;;;;;;;;;;;;;;;;5054026;28;20070;-87
2023/12/24 13:27:07;;;;;;;;;;;;;;;;;;5036916;28;19971;-89
2023/12/24 13:29:36;;;;;;;;;;;;;;;;;;5035741;28;20406;-86
2023/12/24 13:32:02;;;;;;;;;;;;;;;;;;5047909;28;19920;-86
2023/12/24 13:34:28;;;;;;;;;;;;;;;;;;5037304;28;19921;-86
2023/12/24 13:36:54;;;;;;;;;;;;;;;;;;5036410;28;20346;-91
2023/12/24 13:39:20;;;;;;;;;;;;;;;;;;5037060;28;19992;-90
2023/12/24 13:41:46;;;;;;;;;;;;;;;;;;5052706;28;19921;-88
2023/12/24 13:44:12;;;;;;;;;;;;;;;;;;5037017;28;19921;-88
2023/12/24 13:46:39;;;;;;;;;;;;;;;;;;5036946;28;19947;-86
2023/12/24 13:49:07;;;;;;;;;;;;;;;;;;5035891;28;20443;-88
2023/12/24 13:51:36;;;;;;;;;;;;;;;;;;5036188;28;19920;-85
2023/12/24 13:54:02;;;;;;;;;;;;;;;;;;5034692;28;19920;-85
2023/12/24 13:56:29;;;;;;;;;;;;;;;;;;5052164;28;19925;-86
2023/12/24 13:58:55;;;;;;;;;;;;;;;;;;5051274;28;19931;-86
2023/12/24 14:01:21;;;;;;;;;;;;;;;;;;5035326;28;20422;-87
2023/12/24 14:03:47;;;;;;;;;;;;;;;;;;5052222;28;19944;-91
2023/12/24 14:06:13;;;;;;;;;;;;;;;;;;5036179;28;19921;-90
2023/12/24 14:08:39;;;;;;;;;;;;;;;;;;5036093;28;19921;-89
2023/12/24 14:11:05;;;;;;;;;;;;;;;;;;5035374;28;19920;-89
2023/12/24 14:13:31;;;;;;;;;;;;;;;;;;5052897;28;20008;-87
2023/12/24 14:15:57;;;;;;;;;;;;;;;;;;5053250;28;19920;-88
2023/12/24 14:18:23;;;;;;;;;;;;;;;;;;5036993;28;19927;-89
2023/12/24 14:20:49;;;;;;;;;;;;;;;;;;5053170;28;19928;-89
2023/12/24 14:23:15;;;;;;;;;;;;;;;;;;5053051;28;19978;-84
2023/12/24 14:25:40;;;;;;;;;;;;;;;;;;5052537;28;20380;-90
2023/12/24 14:28:08;;;;;;;;;;;;;;;;;;5034956;28;19986;-90
2023/12/24 14:30:34;;;;;;;;;;;;;;;;;;5035897;28;20003;-90
2023/12/24 14:33:00;;;;;;;;;;;;;;;;;;5052827;28;20016;-90
2023/12/24 14:35:26;;;;;;;;;;;;;;;;;;5053006;28;20287;-91
2023/12/24 14:37:52;;;;;;;;;;;;;;;;;;5036329;28;19928;-91
2023/12/24 14:40:18;;;;;;;;;;;;;;;;;;5036350;28;19984;-93
2023/12/24 14:42:44;;;;;;;;;;;;;;;;;;5035442;28;19925;-90
2023/12/24 14:45:10;;;;;;;;;;;;;;;;;;5035796;28;19975;-86
2023/12/24 14:47:36;;;;;;;;;;;;;;;;;;5052798;28;20063;-90
2023/12/24 14:50:04;;;;;;;;;;;;;;;;;;5052190;28;20476;-87
2023/12/24 14:52:30;;;;;;;;;;;;;;;;;;5052268;28;19921;-88
2023/12/24 14:54:56;;;;;;;;;;;;;;;;;;5032481;28;19924;-89
2023/12/24 14:57:24;;;;;;;;;;;;;;;;;;5035249;28;19921;-87
2023/12/24 14:59:50;;;;;;;;;;;;;;;;;;5035463;28;20017;-88
2023/12/24 15:02:16;;;;;;;;;;;;;;;;;;5030785;28;19974;-87
2023/12/24 15:04:43;;;;;;;;;;;;;;;;;;5032846;28;19920;-88
2023/12/24 15:07:09;;;;;;;;;;;;;;;;;;5051107;28;19974;-88
2023/12/24 15:09:35;;;;;;;;;;;;;;;;;;5034368;28;20332;-88
2023/12/24 15:12:01;;;;;;;;;;;;;;;;;;5033811;28;19928;-86
2023/12/24 15:14:27;;;;;;;;;;;;;;;;;;5049533;28;19921;-88
2023/12/24 15:16:53;;;;;;;;;;;;;;;;;;5050961;28;19920;-85
2023/12/24 15:19:18;;;;;;;;;;;;;;;;;;5052302;28;19964;-87
2023/12/24 15:21:45;;;;;;;;;;;;;;;;;;5038745;28;19927;-86
2023/12/24 15:24:11;;;;;;;;;;;;;;;;;;5055210;28;19975;-87
2023/12/24 15:26:37;;;;;;;;;;;;;;;;;;5055649;28;19925;-86
2023/12/24 15:29:04;;;;;;;;;;;;;;;;;;5038464;28;19921;-88
2023/12/24 15:31:30;;;;;;;;;;;;;;;;;;5038772;28;19975;-86
2023/12/24 15:33:56;;;;;;;;;;;;;;;;;;5054689;28;19967;-88
2023/12/24 15:36:22;;;;;;;;;;;;;;;;;;5038616;28;19920;-88
2023/12/24 15:38:48;;;;;;;;;;;;;;;;;;5032989;28;20266;-86
2023/12/24 15:41:14;;;;;;;;;;;;;;;;;;5038523;28;19992;-87
2023/12/24 15:43:44;;;;;;;;;;;;;;;;;;5033261;28;20277;-86
2023/12/24 15:46:10;;;;;;;;;;;;;;;;;;5030580;28;19927;-86
2023/12/24 15:48:36;;;;;;;;;;;;;;;;;;5038493;28;19921;-85
2023/12/24 15:51:03;;;;;;;;;;;;;;;;;;5054857;28;20361;-84
2023/12/24 15:53:29;;;;;;;;;;;;;;;;;;5036402;28;19921;-87
2023/12/24 15:55:55;;;;;;;;;;;;;;;;;;5060649;28;19929;-85
2023/12/24 15:58:22;;;;;;;;;;;;;;;;;;5032273;28;19925;-85
2023/12/24 16:00:48;;;;;;;;;;;;;;;;;;5038547;28;20527;-86
2023/12/24 16:03:14;;;;;;;;;;;;;;;;;;5054610;28;19928;-86
2023/12/24 16:05:40;;;;;;;;;;;;;;;;;;5038423;28;19921;-87
2023/12/24 16:08:06;;;;;;;;;;;;;;;;;;5035635;28;19921;-87
2023/12/24 16:10:32;;;;;;;;;;;;;;;;;;5038432;28;19928;-87
2023/12/24 16:12:58;;;;;;;;;;;;;;;;;;5033700;28;19921;-87
2023/12/24 16:15:24;;;;;;;;;;;;;;;;;;5034745;28;20031;-87
2023/12/24 16:17:50;;;;;;;;;;;;;;;;;;5038195;28;19935;-87
2023/12/24 16:20:16;;;;;;;;;;;;;;;;;;5054347;28;19924;-87
2023/12/24 16:22:42;;;;;;;;;;;;;;;;;;5055481;28;19992;-87
2023/12/24 16:25:08;;;;;;;;;;;;;;;;;;5038029;28;19924;-88
2023/12/24 16:27:36;;;;;;;;;;;;;;;;;;5038389;28;19920;-87
2023/12/24 16:30:02;;;;;;;;;;;;;;;;;;5037768;28;19927;-88
2023/12/24 16:32:28;;;;;;;;;;;;;;;;;;5054458;28;19921;-87
2023/12/24 16:34:54;;;;;;;;;;;;;;;;;;5054858;28;19921;-87
2023/12/24 16:37:20;;;;;;;;;;;;;;;;;;5036390;28;19971;-88
2023/12/24 16:39:46;;;;;;;;;;;;;;;;;;5038397;28;19925;-89
2023/12/24 16:42:12;;;;;;;;;;;;;;;;;;5053887;28;20012;-88
2023/12/24 16:44:38;;;;;;;;;;;;;;;;;;5054640;28;20427;-86
2023/12/24 16:47:04;;;;;;;;;;;;;;;;;;5054491;28;19920;-89
2023/12/24 16:49:30;;;;;;;;;;;;;;;;;;5037485;28;19920;-86
2023/12/24 16:51:56;;;;;;;;;;;;;;;;;;5054495;28;19987;-89
2023/12/24 16:54:22;;;;;;;;;;;;;;;;;;5037301;28;20066;-90
2023/12/24 16:56:48;;;;;;;;;;;;;;;;;;5035674;28;19920;-89
2023/12/24 16:59:13;;;;;;;;;;;;;;;;;;5053137;28;19927;-90
2023/12/24 17:01:39;;;;;;;;;;;;;;;;;;5054893;28;20338;-88
2023/12/24 17:04:05;;;;;;;;;;;;;;;;;;5036755;28;19929;-89
2023/12/24 17:06:32;;;;;;;;;;;;;;;;;;5053975;28;19927;-89
2023/12/24 17:08:58;;;;;;;;;;;;;;;;;;5037491;28;20269;-88
2023/12/24 17:11:25;;;;;;;;;;;;;;;;;;5054183;28;19924;-89
2023/12/24 17:13:51;;;;;;;;;;;;;;;;;;5067136;28;19924;-88
2023/12/24 17:16:17;;;;;;;;;;;;;;;;;;5058535;28;19920;-89
2023/12/24 17:18:43;;;;;;;;;;;;;;;;;;5037134;28;19928;-88
2023/12/24 17:21:09;;;;;;;;;;;;;;;;;;5031012;28;19921;-88
2023/12/24 17:23:35;;;;;;;;;;;;;;;;;;5040825;28;19920;-88
2023/12/24 17:26:01;;;;;;;;;;;;;;;;;;5051341;28;19965;-84
2023/12/24 17:28:27;;;;;;;;;;;;;;;;;;5030803;28;20000;-93
2023/12/24 17:30:53;;;;;;;;;;;;;;;;;;5056521;28;19921;-90
2023/12/24 17:33:19;;;;;;;;;;;;;;;;;;5046200;28;19994;-89
2023/12/24 17:35:45;;;;;;;;;;;;;;;;;;5053432;28;20259;-90
2023/12/24 17:38:11;;;;;;;;;;;;;;;;;;5037133;28;19921;-88
2023/12/24 17:40:37;;;;;;;;;;;;;;;;;;5054105;28;20388;-89
2023/12/24 17:43:03;;;;;;;;;;;;;;;;;;5035832;28;19926;-89
2023/12/24 17:45:28;;;;;;;;;;;;;;;;;;5064772;28;20372;-92
2023/12/24 17:47:54;;;;;;;;;;;;;;;;;;5036326;28;19925;-90
2023/12/24 17:50:20;;;;;;;;;;;;;;;;;;5027278;28;19927;-89
2023/12/24 17:52:46;;;;;;;;;;;;;;;;;;5036492;28;20007;-89